Heleylah, Iran
Current Conditions -  °F | °C
As of 5:00 AM on Sunday 23 Nov 2014 (Local Time) from OIBB Reporting Station
Scattered Clouds Scattered Clouds  
Wind Chill: 73°   Ceiling: Unl
Heat Index: 73°   Visibility: 6mi
Dew Point: 55°   Wind: 7mph
Humidity: 53%   Direction: 140°SE
Pressure: 29.88"   Gusts: NA
Location:  28.84°N, 50.89°E
Report Text: OIBB 230200Z 14006KT 9999 SCT035 23/13 Q1012 A2990
Loading
Personal Weather Stations






























Interactive Weather Map New forecast layout! Learn more

10-Day Weather Forecast

Advertisements
Track Severe Weather on mobile